Time;durP1;ratioP1;P1;durP2;ratioP2;P2;SDS_P1;SDS_P2;PMS_P1;PMS_P2;Temp;Humidity;BMP_temperature;BMP_pressure;BME280_temperature;BME280_humidity;BME280_pressure;Samples;Min_cycle;Max_cycle;Signal;HPM_P1;HPM_P2
2024/03/18 00:00:01;;;;;;;3.47;1.83;;;12.50;99.90;;;;;;5047992;28;20483;-82
2024/03/18 00:02:30;;;;;;;4.18;1.48;;;12.50;99.90;;;;;;5048022;28;20507;-82
2024/03/18 00:04:56;;;;;;;3.88;1.02;;;;;;;;;;5048153;28;20174;-82
2024/03/18 00:07:23;;;;;;;7.65;1.25;;;12.70;99.90;;;;;;5036532;28;20499;-82
2024/03/18 00:09:50;;;;;;;5.38;1.73;;;;;;;;;;5041306;28;20029;-82
2024/03/18 00:12:16;;;;;;;3.13;1.15;;;;;;;;;;5041081;28;20013;-82
2024/03/18 00:14:45;;;;;;;2.17;1.30;;;;;;;;;;5041504;28;20040;-82
2024/03/18 00:17:11;;;;;;;3.03;1.48;;;;;;;;;;5022310;28;20027;-82
2024/03/18 00:19:37;;;;;;;1.73;1.02;;;;;;;;;;5034928;28;20538;-82
2024/03/18 00:22:03;;;;;;;12.18;1.17;;;;;;;;;;5016053;28;20104;-82
2024/03/18 00:24:30;;;;;;;1.80;1.10;;;;;;;;;;5028054;28;20033;-82
2024/03/18 00:26:56;;;;;;;1.77;1.20;;;;;;;;;;5029102;28;20030;-82
2024/03/18 00:29:22;;;;;;;5.00;1.30;;;;;;;;;;5029332;28;20511;-82
2024/03/18 00:31:49;;;;;;;2.50;1.65;;;;;;;;;;5015372;28;20056;-82
2024/03/18 00:34:15;;;;;;;7.53;1.75;;;;;;;;;;5028693;28;20500;-82
2024/03/18 00:36:41;;;;;;;4.05;1.25;;;;;;;;;;5028372;28;20037;-82
2024/03/18 00:39:07;;;;;;;14.63;3.28;;;;;;;;;;5023775;28;20528;-82
2024/03/18 00:41:45;;;;;;;13.10;2.10;;;12.10;99.90;;;;;;5028572;28;20025;-82
2024/03/18 00:44:11;;;;;;;1.63;1.00;;;;;;;;;;5028280;28;20049;-82
2024/03/18 00:46:37;;;;;;;3.85;2.20;;;;;;;;;;5028204;28;20476;-82
2024/03/18 00:49:06;;;;;;;2.25;1.17;;;;;;;;;;5027172;28;20453;-82
2024/03/18 00:51:32;;;;;;;3.25;1.55;;;;;;;;;;5028397;28;20476;-82
2024/03/18 00:53:58;;;;;;;2.83;1.48;;;;;;;;;;5028487;28;20030;-81
2024/03/18 00:56:25;;;;;;;2.25;1.58;;;;;;;;;;5028696;28;20040;-82
2024/03/18 00:58:51;;;;;;;7.00;1.58;;;;;;;;;;5028671;28;20017;-82
2024/03/18 01:01:18;;;;;;;1.13;1.02;;;;;;;;;;5028318;28;20038;-82
2024/03/18 01:03:44;;;;;;;4.55;1.70;;;;;;;;;;5029325;28;20025;-82
2024/03/18 01:06:10;;;;;;;1.75;1.38;;;;;;;;;;5028662;28;20035;-82
2024/03/18 01:08:37;;;;;;;3.28;1.48;;;;;;;;;;5031765;28;20530;-82
2024/03/18 01:11:03;;;;;;;8.73;1.55;;;;;;;;;;5038103;28;20487;-82
2024/03/18 01:13:33;;;;;;;5.35;1.88;;;;;;;;;;5041051;28;20033;-81
2024/03/18 01:15:59;;;;;;;4.50;1.30;;;;;;;;;;5028042;28;20033;-82
2024/03/18 01:18:25;;;;;;;2.92;1.63;;;;;;;;;;5031204;28;20029;-82
2024/03/18 01:20:51;;;;;;;1.50;1.10;;;;;;;;;;5041498;28;20561;-82
2024/03/18 01:23:17;;;;;;;2.33;1.10;;;;;;;;;;5047986;28;20635;-82
2024/03/18 01:25:44;;;;;;;1.52;1.35;;;;;;;;;;5051086;28;20033;-82
2024/03/18 01:28:10;;;;;;;10.70;1.67;;;;;;;;;;5050498;28;20495;-81
2024/03/18 01:30:36;;;;;;;0.80;0.80;;;;;;;;;;5051453;28;20060;-82
2024/03/18 01:33:02;;;;;;;2.35;1.52;;;;;;;;;;5047180;28;20053;-81
2024/03/18 01:35:33;;;;;;;0.93;0.93;;;;;;;;;;5031368;28;20025;-82
2024/03/18 01:37:59;;;;;;;1.92;1.40;;;;;;;;;;5044427;28;20039;-82
2024/03/18 01:40:25;;;;;;;2.30;1.20;;;;;;;;;;5031941;28;20031;-82
2024/03/18 01:42:51;;;;;;;3.25;1.15;;;;;;;;;;5030955;28;20104;-82
2024/03/18 01:45:24;;;;;;;5.18;2.00;;;12.10;99.90;;;;;;5041587;28;20033;-82
2024/03/18 01:47:52;;;;;;;3.53;0.95;;;12.10;99.90;;;;;;5050922;28;20075;-82
2024/03/18 01:50:19;;;;;;;3.20;1.48;;;;;;;;;;5050637;28;20029;-82
2024/03/18 01:52:46;;;;;;;2.05;1.45;;;12.10;99.90;;;;;;5044384;28;20029;-81
2024/03/18 01:55:13;;;;;;;35.05;11.85;;;12.00;99.90;;;;;;5043586;28;20029;-82
2024/03/18 01:57:40;;;;;;;30.70;10.18;;;12.00;99.90;;;;;;5049843;28;20044;-82
2024/03/18 02:00:23;;;;;;;31.35;10.20;;;;;;;;;;5050581;28;20035;-82
2024/03/18 02:02:49;;;;;;;8.57;4.78;;;;;;;;;;5039994;28;20033;-82
2024/03/18 02:05:15;;;;;;;7.38;2.40;;;;;;;;;;5045907;28;20087;-81
2024/03/18 02:07:41;;;;;;;6.07;1.73;;;;;;;;;;5042832;28;20116;-82
2024/03/18 02:10:09;;;;;;;2.33;1.42;;;;;;;;;;5030479;28;20033;-82
2024/03/18 02:12:36;;;;;;;3.60;1.88;;;;;;;;;;5040360;28;20028;-82
2024/03/18 02:15:02;;;;;;;3.13;1.40;;;12.10;99.90;;;;;;5035090;28;20029;-82
2024/03/18 02:17:28;;;;;;;4.00;1.75;;;;;;;;;;5041276;28;20582;-82
2024/03/18 02:19:54;;;;;;;4.43;1.40;;;;;;;;;;5033161;28;20482;-82
2024/03/18 02:22:20;;;;;;;4.30;1.60;;;;;;;;;;5050451;28;20565;-82
2024/03/18 02:24:46;;;;;;;1.15;0.95;;;;;;;;;;5033811;28;20121;-81
2024/03/18 02:27:13;;;;;;;3.75;1.10;;;12.00;99.90;;;;;;5040177;28;20036;-82
2024/03/18 02:29:39;;;;;;;1.80;1.48;;;;;;;;;;5047069;28;20503;-82
2024/03/18 02:32:05;;;;;;;3.00;1.42;;;;;;;;;;5030280;28;20518;-82
2024/03/18 02:34:32;;;;;;;3.60;1.20;;;;;;;;;;5030722;28;20037;-82
2024/03/18 02:36:58;;;;;;;2.80;1.80;;;;;;;;;;5030898;28;20025;-81
2024/03/18 02:39:24;;;;;;;9.70;1.42;;;;;;;;;;5030238;28;20487;-82
2024/03/18 02:41:55;;;;;;;5.22;1.50;;;14.80;99.90;;;;;;5030508;28;20026;-81
2024/03/18 02:44:21;;;;;;;2.33;1.75;;;;;;;;;;5030461;28;20132;-82
2024/03/18 02:46:47;;;;;;;1.67;1.33;;;;;;;;;;5030161;28;20503;-82
2024/03/18 02:49:13;;;;;;;9.32;2.17;;;;;;;;;;5029552;28;20048;-81
2024/03/18 02:51:40;;;;;;;3.65;1.40;;;;;;;;;;5040764;28;20029;-82
2024/03/18 02:54:06;;;;;;;4.72;1.77;;;;;;;;;;5032117;28;20124;-81
2024/03/18 02:56:32;;;;;;;1.83;1.02;;;;;;;;;;5030293;28;20480;-82
2024/03/18 02:58:58;;;;;;;1.50;1.27;;;;;;;;;;5046364;28;20021;-82
2024/03/18 03:01:25;;;;;;;4.00;1.48;;;11.40;99.90;;;;;;5048908;28;20079;-82
2024/03/18 03:03:54;;;;;;;1.30;1.10;;;;;;;;;;5047997;28;20033;-82
2024/03/18 03:06:21;;;;;;;2.00;1.20;;;;;;;;;;5045615;28;20025;-82
2024/03/18 03:08:47;;;;;;;5.38;1.42;;;;;;;;;;5035067;28;20032;-82
2024/03/18 03:11:14;;;;;;;1.33;1.17;;;11.40;99.90;;;;;;5049365;28;20577;-82
2024/03/18 03:13:40;;;;;;;2.13;1.20;;;;;;;;;;5031431;28;20309;-83
2024/03/18 03:16:09;;;;;;;5.28;1.52;;;11.50;99.90;;;;;;5029657;28;20033;-82
2024/03/18 03:18:35;;;;;;;3.60;1.25;;;;;;;;;;5047057;28;20131;-82
2024/03/18 03:21:02;;;;;;;3.17;1.05;;;;;;;;;;5040630;28;20076;-82
2024/03/18 03:23:29;;;;;;;1.88;1.08;;;;;;;;;;5031157;28;20017;-82
2024/03/18 03:25:55;;;;;;;4.38;1.70;;;;;;;;;;5034662;28;20053;-82
2024/03/18 03:28:21;;;;;;;4.28;1.63;;;;;;;;;;5041148;28;20480;-82
2024/03/18 03:30:47;;;;;;;1.35;1.25;;;;;;;;;;5038937;28;20108;-82
2024/03/18 03:33:13;;;;;;;8.02;1.80;;;;;;;;;;5045040;28;20017;-82
2024/03/18 03:35:39;;;;;;;5.57;1.08;;;;;;;;;;5048968;28;20116;-82
2024/03/18 03:38:05;;;;;;;8.60;1.20;;;;;;;;;;5047984;28;20024;-82
2024/03/18 03:40:32;;;;;;;4.13;1.77;;;;;;;;;;5037015;28;20145;-82
2024/03/18 03:42:58;;;;;;;2.20;1.77;;;;;;;;;;5038979;28;20041;-82
2024/03/18 03:45:24;;;;;;;1.95;1.27;;;;;;;;;;5048194;28;20037;-82
2024/03/18 03:47:53;;;;;;;3.70;1.48;;;;;;;;;;5048492;28;20495;-82
2024/03/18 03:50:19;;;;;;;3.15;1.23;;;;;;;;;;5044357;28;20504;-82
2024/03/18 03:52:45;;;;;;;1.20;0.98;;;;;;;;;;5041374;28;20052;-82
2024/03/18 03:55:15;;;;;;;6.30;1.17;;;;;;;;;;5035657;28;20131;-82
2024/03/18 03:57:41;;;;;;;2.80;1.13;;;;;;;;;;5030616;28;20094;-82
2024/03/18 04:00:11;;;;;;;3.15;1.20;;;;;;;;;;5032898;28;20032;-82
2024/03/18 04:02:37;;;;;;;1.73;1.08;;;;;;;;;;5029309;28;20056;-82
2024/03/18 04:05:05;;;;;;;2.13;1.30;;;12.40;99.90;;;;;;5029120;28;20034;-82
2024/03/18 04:07:31;;;;;;;1.30;1.17;;;;;;;;;;5048510;28;20013;-82
2024/03/18 04:09:57;;;;;;;1.98;1.20;;;;;;;;;;5047874;28;20045;-82
2024/03/18 04:12:23;;;;;;;1.45;0.98;;;;;;;;;;5048607;28;20399;-82
2024/03/18 04:14:49;;;;;;;3.80;1.00;;;;;;;;;;5047836;28;20031;-82
2024/03/18 04:17:16;;;;;;;2.53;1.88;;;12.50;99.90;;;;;;5047794;28;20017;-82
2024/03/18 04:19:42;;;;;;;3.90;1.27;;;;;;;;;;5047540;28;20053;-82
2024/03/18 04:22:09;;;;;;;2.35;1.25;;;;;;;;;;5047705;28;20498;-82
2024/03/18 04:24:35;;;;;;;2.28;1.33;;;;;;;;;;5047713;28;20039;-82
2024/03/18 04:27:01;;;;;;;1.25;1.15;;;;;;;;;;5048404;28;20021;-82
2024/03/18 04:29:28;;;;;;;1.55;1.33;;;;;;;;;;5046900;28;20056;-82
2024/03/18 04:31:54;;;;;;;1.77;1.23;;;;;;;;;;5035350;28;20395;-82
2024/03/18 04:34:20;;;;;;;5.63;1.48;;;;;;;;;;5033187;28;20025;-82
2024/03/18 04:36:46;;;;;;;5.25;1.35;;;;;;;;;;5028553;28;20395;-82
2024/03/18 04:39:14;;;;;;;2.58;0.90;;;;;;;;;;5029335;28;20021;-82
2024/03/18 04:41:40;;;;;;;7.80;1.85;;;;;;;;;;5028455;28;20510;-82
2024/03/18 04:44:06;;;;;;;1.35;1.05;;;;;;;;;;5028355;28;20065;-82
2024/03/18 04:46:32;;;;;;;2.75;1.05;;;;;;;;;;5028357;28;20064;-81
2024/03/18 04:48:58;;;;;;;6.93;1.58;;;;;;;;;;5042022;28;20029;-81
2024/03/18 04:51:24;;;;;;;4.25;1.13;;;;;;;;;;5047634;28;20017;-81
2024/03/18 04:53:50;;;;;;;1.23;1.13;;;;;;;;;;5049214;28;20384;-81
2024/03/18 04:56:16;;;;;;;0.77;0.73;;;;;;;;;;5051849;28;20032;-82
2024/03/18 04:58:42;;;;;;;1.70;1.20;;;;;;;;;;5050475;28;20017;-82
2024/03/18 05:01:08;;;;;;;1.52;0.95;;;;;;;;;;5032204;28;20264;-82
2024/03/18 05:03:34;;;;;;;3.05;0.90;;;;;;;;;;5032230;28;20028;-82
2024/03/18 05:06:00;;;;;;;1.15;1.02;;;;;;;;;;5032049;28;20099;-81
2024/03/18 05:08:26;;;;;;;1.88;1.15;;;;;;;;;;5046727;28;20036;-82
2024/03/18 05:10:53;;;;;;;1.83;1.00;;;;;;;;;;5049508;28;20036;-81
2024/03/18 05:13:19;;;;;;;1.42;0.80;;;;;;;;;;5038300;28;20021;-82
2024/03/18 05:15:45;;;;;;;3.78;1.20;;;;;;;;;;5031390;28;20021;-82
2024/03/18 05:18:11;;;;;;;3.97;1.17;;;;;;;;;;5046183;28;20213;-82
2024/03/18 05:20:37;;;;;;;3.22;1.23;;;;;;;;;;5051436;28;20405;-82
2024/03/18 05:23:03;;;;;;;1.05;0.77;;;;;;;;;;5050201;28;20029;-82
2024/03/18 05:25:29;;;;;;;1.55;1.17;;;;;;;;;;5050948;28;20033;-82
2024/03/18 05:27:55;;;;;;;4.38;1.00;;;;;;;;;;5049589;28;20091;-82
2024/03/18 05:30:21;;;;;;;1.40;1.00;;;;;;;;;;5043446;28;20029;-82
2024/03/18 05:32:47;;;;;;;3.20;1.25;;;;;;;;;;5032674;28;20036;-82
2024/03/18 05:35:14;;;;;;;5.78;2.17;;;;;;;;;;5051696;28;20050;-82
2024/03/18 05:37:40;;;;;;;2.45;1.13;;;;;;;;;;5049747;28;20052;-81
2024/03/18 05:40:06;;;;;;;3.42;2.10;;;;;;;;;;5050356;28;20817;-82
2024/03/18 05:42:32;;;;;;;3.50;1.43;;;;;;;;;;5049353;28;20033;-82
2024/03/18 05:44:59;;;;;;;1.92;1.40;;;;;;;;;;5049399;28;20452;-82
2024/03/18 05:47:25;;;;;;;3.50;1.10;;;;;;;;;;5048734;28;20021;-82
2024/03/18 05:49:52;;;;;;;5.43;1.00;;;;;;;;;;5041796;28;20160;-82
2024/03/18 05:52:18;;;;;;;7.30;1.70;;;;;;;;;;5048879;28;20017;-82
2024/03/18 05:54:46;;;;;;;2.22;1.42;;;;;;;;;;5050265;28;20036;-82
2024/03/18 05:57:12;;;;;;;1.58;1.42;;;;;;;;;;5048946;28;20096;-82
2024/03/18 05:59:38;;;;;;;1.75;1.20;;;;;;;;;;5049578;28;20171;-81
2024/03/18 06:02:04;;;;;;;2.17;0.82;;;;;;;;;;5046938;28;20017;-82
2024/03/18 06:04:30;;;;;;;1.48;1.27;;;;;;;;;;5046073;28;20406;-81
2024/03/18 06:06:59;;;;;;;6.28;1.27;;;;;;;;;;5046774;28;20388;-82
2024/03/18 06:09:26;;;;;;;1.60;1.20;;;;;;;;;;5048463;28;20388;-82
2024/03/18 06:11:52;;;;;;;1.20;0.85;;;;;;;;;;5048844;28;20032;-81
2024/03/18 06:14:18;;;;;;;1.33;1.02;;;;;;;;;;5049745;28;20033;-82
2024/03/18 06:16:44;;;;;;;1.50;0.75;;;;;;;;;;5048705;28;20379;-81
2024/03/18 06:19:14;;;;;;;1.55;0.82;;;;;;;;;;5045776;28;20029;-83
2024/03/18 06:21:42;;;;;;;1.13;0.80;;;;;;;;;;5045539;28;20358;-83
2024/03/18 06:24:09;;;;;;;2.80;0.98;;;;;;;;;;5047439;28;20268;-83
2024/03/18 06:26:35;;;;;;;0.50;0.50;;;;;;;;;;5036908;28;20439;-82
2024/03/18 06:29:04;;;;;;;1.13;0.68;;;;;;;;;;5024489;28;20065;-83
2024/03/18 06:31:33;;;;;;;0.88;0.60;;;;;;;;;;5026811;28;20080;-83
2024/03/18 06:33:59;;;;;;;0.73;0.50;;;;;;;;;;5018242;28;20032;-82
2024/03/18 06:36:25;;;;;;;1.98;0.90;;;;;;;;;;5044253;28;20025;-84
2024/03/18 06:38:51;;;;;;;0.50;0.50;;;;;;;;;;5043502;28;20025;-86
2024/03/18 06:41:17;;;;;;;1.90;0.70;;;;;;;;;;5043351;28;20028;-84
2024/03/18 06:43:43;;;;;;;0.95;0.60;;;;;;;;;;5044168;28;20025;-85
2024/03/18 06:46:09;;;;;;;3.50;1.02;;;;;;;;;;5043902;28;20483;-83
2024/03/18 06:48:36;;;;;;;2.97;1.00;;;;;;;;;;5038726;28;20115;-87
2024/03/18 06:51:02;;;;;;;3.50;0.70;;;;;;;;;;5033585;28;20063;-87
2024/03/18 06:53:28;;;;;;;1.17;0.82;;;;;;;;;;5030798;28;20021;-84
2024/03/18 06:55:53;;;;;;;2.00;1.33;;;14.90;99.90;;;;;;5033847;28;20100;-83
2024/03/18 06:58:24;;;;;;;0.98;0.88;;;;;;;;;;5031470;28;20457;-83
2024/03/18 07:00:50;;;;;;;1.75;1.30;;;;;;;;;;5032190;28;20032;-85
2024/03/18 07:03:16;;;;;;;3.63;1.85;;;;;;;;;;5029417;28;20605;-83
2024/03/18 07:05:42;;;;;;;9.95;4.28;;;;;;;;;;5032587;28;20040;-83
2024/03/18 07:08:08;;;;;;;2.08;1.70;;;;;;;;;;5025885;28;20318;-84
2024/03/18 07:10:34;;;;;;;0.73;0.70;;;;;;;;;;5030108;28;20104;-83
2024/03/18 07:13:00;;;;;;;1.45;1.10;;;;;;;;;;5024526;28;20428;-84
2024/03/18 07:15:26;;;;;;;5.07;2.40;;;;;;;;;;5026111;28;20064;-84
2024/03/18 07:17:52;;;;;;;2.20;1.40;;;;;;;;;;5021323;28;20026;-84
2024/03/18 07:20:18;;;;;;;0.60;0.55;;;;;;;;;;5031998;28;20174;-85
2024/03/18 07:22:44;;;;;;;3.47;1.23;;;;;;;;;;5030528;28;20026;-84
2024/03/18 07:25:11;;;;;;;4.28;2.55;;;17.20;82.20;;;;;;5031033;28;20045;-84
2024/03/18 07:27:38;;;;;;;1.27;1.17;;;;;;;;;;5030274;28;20067;-84
2024/03/18 07:30:05;;;;;;;1.58;1.38;;;16.70;85.40;;;;;;5031162;28;20120;-85
2024/03/18 07:32:31;;;;;;;0.60;0.60;;;;;;;;;;5040864;28;20040;-85
2024/03/18 07:34:57;;;;;;;0.70;0.70;;;;;;;;;;5047048;28;20032;-85
2024/03/18 07:37:23;;;;;;;0.93;0.70;;;;;;;;;;5047659;28;20248;-84
2024/03/18 07:39:49;;;;;;;1.00;0.90;;;;;;;;;;5047046;28;20033;-84
2024/03/18 07:42:16;;;;;;;1.00;0.75;;;;;;;;;;5047446;28;20647;-85
2024/03/18 07:44:42;;;;;;;0.63;0.63;;;;;;;;;;5047477;28;20045;-84
2024/03/18 07:47:08;;;;;;;1.45;0.70;;;;;;;;;;5047815;28;20028;-84
2024/03/18 07:49:38;;;;;;;0.70;0.70;;;16.00;90.00;;;;;;5044961;28;20581;-84
2024/03/18 07:52:04;;;;;;;0.88;0.82;;;;;;;;;;5033121;28;20037;-85
2024/03/18 07:54:31;;;;;;;1.13;0.82;;;;;;;;;;5046859;28;20263;-84
2024/03/18 07:56:57;;;;;;;0.55;0.55;;;;;;;;;;5047042;28;20024;-84
2024/03/18 07:59:23;;;;;;;2.80;0.98;;;;;;;;;;5034178;28;20032;-85
2024/03/18 08:01:50;;;;;;;0.65;0.60;;;;;;;;;;5032047;28;20036;-84
2024/03/18 08:04:16;;;;;;;1.13;0.90;;;;;;;;;;5047275;28;20033;-84
2024/03/18 08:06:46;;;;;;;0.82;0.82;;;;;;;;;;5046745;28;20658;-84
2024/03/18 08:09:19;;;;;;;0.50;0.50;;;16.20;90.00;;;;;;5047464;28;20530;-84
2024/03/18 08:11:46;;;;;;;0.77;0.40;;;16.20;89.10;;;;;;5030544;28;20032;-86
2024/03/18 08:14:12;;;;;;;0.50;0.50;;;;;;;;;;5036152;28;20060;-84
2024/03/18 08:16:39;;;;;;;0.63;0.60;;;15.90;89.60;;;;;;5047440;28;20040;-84
2024/03/18 08:19:06;;;;;;;0.75;0.40;;;;;;;;;;5046482;28;20032;-85
2024/03/18 08:21:32;;;;;;;0.40;0.40;;;;;;;;;;5046314;28;20404;-85
2024/03/18 08:23:58;;;;;;;0.73;0.70;;;;;;;;;;5046730;28;20120;-85
2024/03/18 08:26:25;;;;;;;1.00;0.73;;;;;;;;;;5045606;28;20029;-85
2024/03/18 08:28:51;;;;;;;0.30;0.30;;;;;;;;;;5036513;28;20049;-85
2024/03/18 08:31:17;;;;;;;0.50;0.50;;;;;;;;;;5030080;28;20033;-85
2024/03/18 08:33:43;;;;;;;1.40;0.60;;;;;;;;;;5045599;28;20035;-85
2024/03/18 08:36:09;;;;;;;0.43;0.43;;;;;;;;;;5044912;28;20086;-85
2024/03/18 08:38:35;;;;;;;0.55;0.38;;;;;;;;;;5035987;28;20468;-84
2024/03/18 08:41:01;;;;;;;0.50;0.50;;;;;;;;;;5044553;28;20031;-85
2024/03/18 08:43:27;;;;;;;1.05;0.40;;;;;;;;;;5027216;28;20029;-85
2024/03/18 08:45:53;;;;;;;1.42;0.50;;;;;;;;;;5026675;28;20029;-85
2024/03/18 08:48:19;;;;;;;0.60;0.45;;;;;;;;;;5028762;28;20440;-85
2024/03/18 08:50:45;;;;;;;0.38;0.38;;;;;;;;;;5042048;28;20112;-84
2024/03/18 08:53:12;;;;;;;0.40;0.40;;;;;;;;;;5027146;28;20037;-84
2024/03/18 08:55:38;;;;;;;0.43;0.43;;;;;;;;;;5030678;28;20070;-86
2024/03/18 08:58:04;;;;;;;1.23;0.52;;;;;;;;;;5041664;28;20094;-85
2024/03/18 09:00:30;;;;;;;0.30;0.30;;;;;;;;;;5041408;28;20025;-85
2024/03/18 09:02:57;;;;;;;0.45;0.45;;;;;;;;;;5045590;28;20029;-85
2024/03/18 09:05:23;;;;;;;0.60;0.60;;;;;;;;;;5028261;28;20065;-85
2024/03/18 09:07:49;;;;;;;0.55;0.52;;;;;;;;;;5027814;28;20065;-84
2024/03/18 09:10:15;;;;;;;0.57;0.40;;;;;;;;;;5030218;28;20021;-85
2024/03/18 09:12:42;;;;;;;0.60;0.60;;;;;;;;;;5041048;28;20037;-85
2024/03/18 09:15:08;;;;;;;1.63;0.43;;;17.10;83.70;;;;;;5038443;28;20027;-85
2024/03/18 09:17:35;;;;;;;0.28;0.20;;;;;;;;;;5035175;28;20038;-84
2024/03/18 09:20:01;;;;;;;0.83;0.83;;;;;;;;;;5034257;28;20048;-85
2024/03/18 09:22:27;;;;;;;0.47;0.30;;;;;;;;;;5026101;28;20029;-85
2024/03/18 09:24:53;;;;;;;0.30;0.30;;;;;;;;;;5030864;28;20042;-85
2024/03/18 09:27:19;;;;;;;0.30;0.30;;;;;;;;;;5022253;28;20025;-85
2024/03/18 09:29:45;;;;;;;0.30;0.30;;;;;;;;;;5034873;28;20415;-85
2024/03/18 09:32:11;;;;;;;0.20;0.20;;;;;;;;;;5032235;28;20030;-85
2024/03/18 09:34:38;;;;;;;1.13;0.93;;;;;;;;;;5035503;28;20029;-85
2024/03/18 09:37:04;;;;;;;0.30;0.30;;;;;;;;;;5025172;28;20484;-85
2024/03/18 09:39:30;;;;;;;1.38;0.50;;;;;;;;;;5040773;28;20048;-86
2024/03/18 09:41:56;;;;;;;0.82;0.50;;;;;;;;;;5047802;28;20025;-86
2024/03/18 09:44:22;;;;;;;0.55;0.50;;;;;;;;;;5044991;28;20369;-85
2024/03/18 09:46:48;;;;;;;0.47;0.47;;;;;;;;;;5042684;28;20078;-87
2024/03/18 09:49:15;;;;;;;0.30;0.30;;;;;;;;;;5034194;28;20029;-85
2024/03/18 09:51:45;;;;;;;0.30;0.30;;;19.20;73.90;;;;;;5038136;28;20033;-83
2024/03/18 09:54:18;;;;;;;1.63;0.90;;;20.50;70.50;;;;;;5035070;28;20033;-85
2024/03/18 09:57:03;;;;;;;0.68;0.65;;;21.30;66.70;;;;;;5031973;28;20044;-84
2024/03/18 09:59:29;;;;;;;1.00;0.70;;;;;;;;;;5030808;28;20018;-84
2024/03/18 10:01:55;;;;;;;0.40;0.40;;;;;;;;;;5031713;28;20044;-85
2024/03/18 10:04:21;;;;;;;1.10;0.93;;;;;;;;;;5047780;28;20498;-84
2024/03/18 10:06:47;;;;;;;0.30;0.30;;;;;;;;;;5049119;28;20029;-84
2024/03/18 10:09:15;;;;;;;0.30;0.30;;;;;;;;;;5041654;28;20028;-84
2024/03/18 10:11:44;;;;;;;0.82;0.32;;;;;;;;;;5042090;28;20025;-84
2024/03/18 10:14:11;;;;;;;1.35;0.40;;;;;;;;;;5044485;28;20083;-84
2024/03/18 10:16:38;;;;;;;0.30;0.30;;;;;;;;;;5049975;28;20036;-84
2024/03/18 10:19:06;;;;;;;0.52;0.47;;;;;;;;;;5046722;28;20048;-84
2024/03/18 10:21:35;;;;;;;0.30;0.30;;;;;;;;;;5050079;28;20047;-85
2024/03/18 10:24:01;;;;;;;0.35;0.32;;;;;;;;;;5046521;28;20493;-85
2024/03/18 10:26:27;;;;;;;0.30;0.30;;;;;;;;;;5036313;28;20044;-84
2024/03/18 10:28:53;;;;;;;1.45;0.60;;;;;;;;;;5033526;28;20365;-84
2024/03/18 10:31:19;;;;;;;1.98;0.77;;;;;;;;;;5033023;28;20025;-84
2024/03/18 10:33:46;;;;;;;2.03;0.50;;;;;;;;;;5041517;28;20487;-84
2024/03/18 10:36:36;;;;;;;0.30;0.30;;;18.90;65.60;;;;;;5032743;28;20044;-84
2024/03/18 10:39:07;;;;;;;0.40;0.40;;;19.20;64.90;;;;;;5040406;28;20044;-84
2024/03/18 10:41:39;;;;;;;1.33;0.80;;;20.10;68.20;;;;;;5044365;28;20513;-84
2024/03/18 10:44:22;;;;;;;1.85;0.70;;;24.80;61.50;;;;;;5030208;28;20583;-85
2024/03/18 10:46:48;;;;;;;0.32;0.32;;;;;;;;;;5035866;28;20021;-85
2024/03/18 10:49:19;;;;;;;0.20;0.20;;;27.30;50.70;;;;;;5039225;28;20034;-84
2024/03/18 10:51:46;;;;;;;0.20;0.20;;;26.30;49.60;;;;;;5046510;28;20530;-85
2024/03/18 10:54:17;;;;;;;0.32;0.30;;;26.20;50.40;;;;;;5043499;28;20517;-85
2024/03/18 10:56:47;;;;;;;2.30;1.48;;;24.90;49.40;;;;;;5048697;28;20136;-84
2024/03/18 10:59:15;;;;;;;0.20;0.20;;;23.40;51.10;;;;;;5058150;28;20033;-83
2024/03/18 11:01:42;;;;;;;0.20;0.20;;;22.40;52.90;;;;;;5038487;28;20029;-84
2024/03/18 11:04:25;;;;;;;0.10;0.10;;;22.00;61.70;;;;;;5040312;28;20518;-84
2024/03/18 11:06:55;;;;;;;0.57;0.40;;;21.90;53.80;;;;;;5029890;28;20672;-84
2024/03/18 11:09:23;;;;;;;0.30;0.30;;;23.20;53.80;;;;;;5041684;28;20078;-84
2024/03/18 11:11:49;;;;;;;0.88;0.43;;;;;;;;;;5038780;28;20121;-83
2024/03/18 11:14:35;;;;;;;0.30;0.25;;;25.00;49.10;;;;;;5038321;28;20053;-84
2024/03/18 11:17:06;;;;;;;1.67;0.30;;;24.60;49.50;;;;;;4995113;28;20447;-84
2024/03/18 11:19:33;;;;;;;0.20;0.20;;;24.90;50.00;;;;;;4996867;28;20046;-84
2024/03/18 11:22:00;;;;;;;3.60;0.30;;;24.90;48.30;;;;;;4995332;28;20432;-83
2024/03/18 11:24:27;;;;;;;0.15;0.15;;;;;;;;;;4990932;28;20070;-84
2024/03/18 11:26:55;;;;;;;0.35;0.35;;;23.70;49.30;;;;;;4995359;28;20026;-84
2024/03/18 11:29:21;;;;;;;0.25;0.20;;;;;;;;;;4997246;28;20540;-84
2024/03/18 11:31:53;;;;;;;0.20;0.20;;;;;;;;;;4994412;28;20057;-87
2024/03/18 11:34:23;;;;;;;0.10;0.10;;;22.50;51.50;;;;;;4992952;28;20602;-82
2024/03/18 11:36:50;;;;;;;0.32;0.20;;;;;;;;;;4987343;28;20056;-83
2024/03/18 11:39:17;;;;;;;0.52;0.52;;;;;;;;;;4994266;28;20105;-83
2024/03/18 11:41:44;;;;;;;0.13;0.13;;;;;;;;;;4999923;28;20045;-82
2024/03/18 11:44:13;;;;;;;0.35;0.35;;;20.90;57.00;;;;;;4990021;28;20034;-83
2024/03/18 11:46:39;;;;;;;3.05;0.82;;;;;;;;;;5003544;28;20048;-83
2024/03/18 11:49:10;;;;;;;1.00;0.60;;;20.20;55.30;;;;;;4996406;28;20464;-83
2024/03/18 11:51:36;;;;;;;0.50;0.40;;;;;;;;;;4986177;28;20392;-83
2024/03/18 11:54:06;;;;;;;0.77;0.30;;;;;;;;;;5004767;28;20041;-83
2024/03/18 11:56:34;;;;;;;0.20;0.20;;;;;;;;;;5034879;28;20063;-83
2024/03/18 11:59:02;;;;;;;0.43;0.43;;;;;;;;;;5039650;28;20520;-83
2024/03/18 12:01:28;;;;;;;7.40;2.33;;;;;;;;;;5036963;28;20045;-83
2024/03/18 12:03:54;;;;;;;1.10;0.43;;;;;;;;;;5033527;28;20064;-83
2024/03/18 12:06:20;;;;;;;1.65;0.88;;;;;;;;;;5027143;28;20507;-83
2024/03/18 12:08:47;;;;;;;1.95;0.90;;;;;;;;;;5040826;28;20111;-83
2024/03/18 12:11:13;;;;;;;1.90;1.35;;;23.60;50.60;;;;;;5030967;28;20025;-83
2024/03/18 12:13:40;;;;;;;1.05;0.77;;;;;;;;;;5039145;28;20036;-82
2024/03/18 12:16:12;;;;;;;0.40;0.40;;;24.30;50.00;;;;;;5038250;28;20025;-82
2024/03/18 12:18:38;;;;;;;0.80;0.40;;;;;;;;;;5040936;28;20112;-84
2024/03/18 12:21:04;;;;;;;0.60;0.32;;;;;;;;;;5037352;28;20502;-82
2024/03/18 12:29:01;;;;;;;0.68;0.68;;;;;;;;;;5038456;28;20111;-83
2024/03/18 12:31:30;;;;;;;0.28;0.20;;;24.10;49.70;;;;;;5029256;28;20021;-83
2024/03/18 12:33:59;;;;;;;0.20;0.20;;;24.30;49.30;;;;;;5038850;28;20902;-83
2024/03/18 12:36:25;;;;;;;0.35;0.20;;;;;;;;;;5046076;28;20033;-83
2024/03/18 12:38:51;;;;;;;0.20;0.20;;;;;;;;;;5047431;28;20060;-84
2024/03/18 12:41:21;;;;;;;0.30;0.30;;;23.90;48.30;;;;;;5045278;28;20407;-82
2024/03/18 12:43:48;;;;;;;0.13;0.13;;;;;;;;;;5039528;28;20143;-83
2024/03/18 12:46:18;;;;;;;0.30;0.20;;;24.40;48.50;;;;;;5045001;28;20032;-83
2024/03/18 12:48:44;;;;;;;0.13;0.13;;;;;;;;;;5032193;28;20029;-84
2024/03/18 12:51:11;;;;;;;0.13;0.13;;;;;;;;;;5038025;28;20047;-83
2024/03/18 12:53:38;;;;;;;0.82;0.20;;;;;;;;;;5035610;28;20049;-83
2024/03/18 12:56:07;;;;;;;0.25;0.20;;;;;;;;;;5030274;28;20431;-83
2024/03/18 12:58:36;;;;;;;0.20;0.20;;;;;;;;;;5028704;28;20037;-83
2024/03/18 13:01:06;;;;;;;0.28;0.20;;;24.30;48.20;;;;;;5025284;28;20313;-83
2024/03/18 13:03:32;;;;;;;0.10;0.10;;;;;;;;;;5021503;28;20048;-83
2024/03/18 13:05:59;;;;;;;0.22;0.20;;;;;;;;;;5028891;28;20032;-82
2024/03/18 13:08:25;;;;;;;0.10;0.10;;;;;;;;;;5030517;28;20022;-83
2024/03/18 13:10:52;;;;;;;0.20;0.20;;;;;;;;;;5028965;28;20033;-83
2024/03/18 13:13:29;;;;;;;0.10;0.10;;;23.70;47.90;;;;;;5029179;28;20032;-86
2024/03/18 13:15:55;;;;;;;0.20;0.20;;;;;;;;;;5021652;28;20052;-88
2024/03/18 13:18:27;;;;;;;0.20;0.20;;;;;;;;;;5031707;28;20140;-85
2024/03/18 13:20:54;;;;;;;0.13;0.13;;;21.50;49.60;;;;;;5041624;28;20064;-88
2024/03/18 13:23:21;;;;;;;0.38;0.25;;;20.80;50.40;;;;;;5034764;28;20029;-88
2024/03/18 13:25:51;;;;;;;0.28;0.28;;;20.30;51.20;;;;;;5042736;28;20491;-83
2024/03/18 13:28:20;;;;;;;0.25;0.25;;;;;;;;;;5034563;28;20037;-83
2024/03/18 13:30:46;;;;;;;0.20;0.20;;;;;;;;;;5032614;28;20439;-83
2024/03/18 13:33:16;;;;;;;0.30;0.30;;;20.00;56.00;;;;;;5049474;28;20025;-85
2024/03/18 13:35:43;;;;;;;0.20;0.20;;;20.00;52.50;;;;;;5050347;28;20043;-82
2024/03/18 13:38:12;;;;;;;0.43;0.30;;;19.90;52.60;;;;;;5049020;28;20017;-86
2024/03/18 13:40:38;;;;;;;0.15;0.15;;;19.60;53.00;;;;;;5049101;28;20080;-81
2024/03/18 13:43:05;;;;;;;0.30;0.30;;;;;;;;;;5041303;28;20108;-82
2024/03/18 13:45:31;;;;;;;0.20;0.20;;;;;;;;;;5035136;28;20239;-81
2024/03/18 13:48:03;;;;;;;0.20;0.20;;;;;;;;;;5038176;28;20021;-86
2024/03/18 13:50:29;;;;;;;0.20;0.20;;;;;;;;;;5034050;28;20046;-83
2024/03/18 13:52:55;;;;;;;0.28;0.28;;;;;;;;;;5030736;28;20071;-83
2024/03/18 13:55:22;;;;;;;0.52;0.40;;;;;;;;;;5034263;28;20487;-83
2024/03/18 13:57:49;;;;;;;0.20;0.20;;;20.50;52.40;;;;;;5040453;28;20039;-84
2024/03/18 14:00:19;;;;;;;0.20;0.20;;;20.40;61.90;;;;;;5029594;28;20545;-84
2024/03/18 14:02:46;;;;;;;0.20;0.20;;;20.30;52.40;;;;;;5050129;28;20071;-83
2024/03/18 14:05:12;;;;;;;0.30;0.30;;;;;;;;;;5040851;28;20049;-83
2024/03/18 14:07:38;;;;;;;0.30;0.30;;;;;;;;;;5038727;28;20075;-83
2024/03/18 14:10:05;;;;;;;0.30;0.30;;;;;;;;;;5031705;28;20518;-82
2024/03/18 14:12:31;;;;;;;0.20;0.20;;;;;;;;;;5044875;28;20064;-83
2024/03/18 14:15:00;;;;;;;0.20;0.20;;;;;;;;;;5040824;28;20029;-82
2024/03/18 14:17:26;;;;;;;0.30;0.30;;;;;;;;;;5045646;28;20555;-83
2024/03/18 14:19:52;;;;;;;0.90;0.88;;;;;;;;;;5038026;28;20033;-83
2024/03/18 14:22:18;;;;;;;0.22;0.22;;;;;;;;;;5050039;28;20590;-83